VAM | Vabird-VBD

Virtual Vabird! Aerolínea Virtual de habla hispana, desde 2011




 INFORMACIÓN METAR y TAF
METAR FOR LSGS
ADDS - METARS form results

(0114 UTC 22 June 2021)
Data provider http://aviationweather.gov/metar/data/
 
METAR text: LSGS 220050Z AUTO VRB01KT 9999 NCD 18/15 Q1011
Conditions at: LSGS (SION (MIL/CIV/AU, CH) observed 0050 UTC 22 June 2021
Temperature: 18.0°C (64°F)
Dewpoint: 15.0°C (59°F) [RH = 83%]
Pressure (altimeter): 29.85 inches Hg (1011.0 mb)
Winds: variable direction winds at 1 MPH (1 knots; 0.5 m/s)
Visibility: 6 or more miles (10+ km)
Ceiling: at least 12,000 feet AGL
Clouds: sky clear below 12,000 feet AGL
Weather: no significant weather observed at this time

METAR text: LSGS 220020Z AUTO VRB03KT CAVOK 19/15 Q1011
Conditions at: LSGS (SION (MIL/CIV/AU, CH) observed 0020 UTC 22 June 2021
Temperature: 19.0°C (66°F)
Dewpoint: 15.0°C (59°F) [RH = 78%]
Pressure (altimeter): 29.85 inches Hg (1011.0 mb)
Winds: variable direction winds at 3 MPH (3 knots; 1.5 m/s)
Visibility: 6 or more miles (10+ km)
Ceiling: ceiling and visibility are OK
Clouds: unknown
Weather: no significant weather observed at this time

Forecast for: LSGS (SION (MIL/CIV/AU, CH)
Text: TAF LSGS 211425Z 2115/2124 25015KT 9999 SCT090
Forecast period: 1500 to 1800 UTC 21 June 2021
Forecast type: FROM: standard forecast or significant change
Winds: from the WSW (250 degrees) at 17 MPH (15 knots; 7.7 m/s)
Visibility: 6 or more miles (10+ km)
Ceiling: at least 12,000 feet AGL
Clouds: scattered clouds at 9000 feet AGL
Weather: no significant weather forecast for this period
Text: TEMPO 2116/2120 SHRA FEW070TCU
Forecast period: 1600 to 2000 UTC 21 June 2021
Forecast type: TEMPORARY: The following changes expected for less than half the time period
Visibility: missing
Ceiling: at least 12,000 feet AGL
Clouds: few clouds at 7000 feet AGL
Weather: SHRA  (rain showers)
Text: BECMG 2118/2121 25005KT
Forecast period: 1800 UTC 21 June 2021 to 0000 UTC 22 June 2021
Forecast type: BECOMING: Conditions expected to become as follows by 2100 UTC 21 June 2021
Winds: from the WSW (250 degrees) at 6 MPH (5 knots; 2.6 m/s)
Visibility: 6 or more miles (10+ km)
Ceiling: at least 12,000 feet AGL
Clouds: scattered clouds at 9000 feet AGL
Weather: no significant weather forecast for this period

 MAPA DE AEROPUERTO

 INFORMACIÓN DE PISTA